Aérodrome :











RETROUVEZ-NOUS SUR...

 
LOGIN :

S'inscrire | Disclaimer

   EN    FR    IT 

 









Légende :    VFR   VFR Marginal   IFR   IFR Intensif   IFR Très Intensif
Visi : 
Plafond : 
>= 8 km
>= 3000ft
5 à 8 km
1000 à 3000 ft
1500m à 5 km
500 à 1000 ft
800 à 1500m
200 à 500 ft
< 800m
< 200 ft
Symboles :   Orages  Brouillard  Fortes neiges  Fortes précipitations  Vent > 20 kt






- Altitude de l'aérodrome : 15 ft
- Code IATA : PLS


MBPV - Providenciales

DERNIER METAR :
  • 171700Z 18005KT 9999 SCT012 30/24 Q1007

METARs EXPIRÉS :
  • 171600Z 18005KT 9999 SCT012 30/24 Q1009
  • 171500Z 17006KT 9999 SCT012 30/24 Q1009

TAF MBPV
Valide du 17 à 12h jusqu'au 18 à 12h UTC


171050Z 1712/1812 18005KT 9999 SCT015
PROB30
TEMPO 1802/1804 20004KT 9000 SHRA SCT014 BKN045



MET'MAP, la Météo Aéronautique d'un coup d'oeil ! - Copyright ORBIFLY Décembre 2007 - Disclaimer

ORBIFLY MET'MAP TEAM :

Programmation & Développement : Alexandra Zaïnal
Conception & Développement : Baudouin d'Aumeries
Co-Programmation & Développement : Marc-Olivier Méhu
Soutien technique & logistique : Manuel Goepfert

Contact : metmap@orbifly.com




SOURCES & CREDITS :

   NOAA       Earth
Advisory